Canyonlands National Park, UT

10:57 PM MDT on October 21, 2014 (GMT -0600)
Canon Vista | Change Station
CLOSE
Current Station
Personal Weather Station
Location: Moab, UT
Elevation: 4183 ft
Nearby Weather Stations

Elev 4183 ft 38.56 °N, 109.53 °W | Updated 2 seconds ago

Overcast
Overcast
64.2 °F
Feels Like 64.2 °F
N
6.0
Wind Variable Wind from SSE
Gusts 0.0 mph

Today
High -- | Low -- °F
--% Chance of Precip.
Yesterday
High -- | Low -- °F
Precip. -- in
7:33 AM 6:31 PM
Waning Crescent, 3% visible
Pressure 29.80 in
Visibility 10.0 miles
Clouds Overcast 9500 ft
Dew Point 48 °F
Humidity 56%
Rainfall 0.00 in
Snow Depth 0 in
UV 0 out of 12
Pollen 1.90 out of 12
Air Quality Not available.
Flu Activity Sporadic
METAR KCNY 220353Z AUTO 01003KT 10SM OVC095 19/01 A2993 RMK AO2 SLP090 T01890006

More Conditions Fewer Conditions

Pressure 29.80 in
Visibility 10.0 miles
Clouds Overcast 9500 ft
Dew Point 48 °F
Humidity 56%
Rainfall 0.00 in
Snow Depth 0 in
UV 0 out of 12
Pollen 1.90 out of 12
Air Quality Not available.
Flu Activity Sporadic
METAR KCNY 220353Z AUTO 01003KT 10SM OVC095 19/01 A2993 RMK AO2 SLP090 T01890006

More Conditions Fewer Conditions

10-Day Weather Forecast

Almanac

Astronomy

Oct. 21, 2014 Rise Set
Actual Time 7:33 AM MDT 6:31 PM MDT
Civil Twilight 7:06 AM MDT 6:58 PM MDT
Nautical Twilight 6:35 AM MDT 7:29 PM MDT
Astronomical Twilight 6:04 AM MDT 7:59 PM MDT
Moon 5:22 AM MDT (10/21) 5:25 PM MDT (10/21)
Length of Visible Light 11h 52m
Length of Day
10h 58m
Tomorrow will be 2m 21s shorter.
Waning Crescent, 3% of the Moon is Illuminated
Oct 22
Waning Crescent
Oct 23
New
Oct 30
First Quarter
Nov 6
Full
Nov 14
Last Quarter

Yesterday's Extremes

State Highs State Lows

Community

WunderPhotos

Upload Photos

1,763,882 photos uploaded!

Nearby

Snow Depth

Station Depth Elevation
Lasal Mountain 0 in 9850 ft
Camp Jackson 0 in 8600 ft
Buck Flat 0 in 9800 ft
Black Flat-U.M. Creek 0 in 9400 ft
Red Pine Ridge 0 in 9200 ft

Earthquake Activity

City Distance Mag. Time & Date
No recent earthquake activity has been reported nearby.
Minimum magnitude displayed is 2.5.

Coastal Water Temperatures

Place Temperature
No Stations Reporting

Nearby Weather Stations